sensor_id;sensor_type;location;lat;lon;timestamp;temperature;humidity
20349;DHT22;10332;50.208;18.988;2023-08-21T00:00:03;25.70;46.00
20349;DHT22;10332;50.208;18.988;2023-08-21T00:02:31;25.70;47.40
20349;DHT22;10332;50.208;18.988;2023-08-21T00:04:59;25.70;47.20
20349;DHT22;10332;50.208;18.988;2023-08-21T00:07:26;25.60;47.70
20349;DHT22;10332;50.208;18.988;2023-08-21T00:09:53;25.60;48.00
20349;DHT22;10332;50.208;18.988;2023-08-21T00:12:23;25.60;48.10
20349;DHT22;10332;50.208;18.988;2023-08-21T00:14:50;25.50;48.10
20349;DHT22;10332;50.208;18.988;2023-08-21T00:17:18;25.50;49.10
20349;DHT22;10332;50.208;18.988;2023-08-21T00:19:46;25.40;50.80
20349;DHT22;10332;50.208;18.988;2023-08-21T00:22:13;25.30;52.30
20349;DHT22;10332;50.208;18.988;2023-08-21T00:24:40;25.30;54.10
20349;DHT22;10332;50.208;18.988;2023-08-21T00:27:08;25.20;55.10
20349;DHT22;10332;50.208;18.988;2023-08-21T00:29:35;25.10;56.70
20349;DHT22;10332;50.208;18.988;2023-08-21T00:32:03;25.00;64.30
20349;DHT22;10332;50.208;18.988;2023-08-21T00:34:30;25.00;62.00
20349;DHT22;10332;50.208;18.988;2023-08-21T00:36:58;24.90;63.20
20349;DHT22;10332;50.208;18.988;2023-08-21T00:39:26;24.90;65.80
20349;DHT22;10332;50.208;18.988;2023-08-21T00:41:54;24.80;68.90
20349;DHT22;10332;50.208;18.988;2023-08-21T00:44:22;24.70;69.30
20349;DHT22;10332;50.208;18.988;2023-08-21T00:46:49;24.60;69.50
20349;DHT22;10332;50.208;18.988;2023-08-21T00:49:17;24.60;71.20
20349;DHT22;10332;50.208;18.988;2023-08-21T00:51:45;24.50;73.60
20349;DHT22;10332;50.208;18.988;2023-08-21T00:54:13;24.50;74.30
20349;DHT22;10332;50.208;18.988;2023-08-21T00:56:40;24.40;78.00
20349;DHT22;10332;50.208;18.988;2023-08-21T00:59:09;24.30;80.60
20349;DHT22;10332;50.208;18.988;2023-08-21T01:01:37;24.20;82.30
20349;DHT22;10332;50.208;18.988;2023-08-21T01:04:05;24.10;80.90
20349;DHT22;10332;50.208;18.988;2023-08-21T01:06:32;24.10;80.20
20349;DHT22;10332;50.208;18.988;2023-08-21T01:09:17;24.10;78.70
20349;DHT22;10332;50.208;18.988;2023-08-21T01:11:58;24.20;78.00
20349;DHT22;10332;50.208;18.988;2023-08-21T01:14:51;24.20;76.10
20349;DHT22;10332;50.208;18.988;2023-08-21T01:17:27;24.20;74.40
20349;DHT22;10332;50.208;18.988;2023-08-21T01:19:56;24.20;73.70
20349;DHT22;10332;50.208;18.988;2023-08-21T01:22:36;24.20;73.50
20349;DHT22;10332;50.208;18.988;2023-08-21T01:25:06;24.10;72.90
20349;DHT22;10332;50.208;18.988;2023-08-21T01:27:36;24.20;72.20
20349;DHT22;10332;50.208;18.988;2023-08-21T01:30:04;24.20;71.50
20349;DHT22;10332;50.208;18.988;2023-08-21T01:35:15;24.20;71.20
20349;DHT22;10332;50.208;18.988;2023-08-21T01:37:44;24.10;71.20
20349;DHT22;10332;50.208;18.988;2023-08-21T01:40:11;24.10;72.20
20349;DHT22;10332;50.208;18.988;2023-08-21T01:42:39;24.10;71.50
20349;DHT22;10332;50.208;18.988;2023-08-21T01:45:07;24.10;70.70
20349;DHT22;10332;50.208;18.988;2023-08-21T01:47:35;24.10;70.30
20349;DHT22;10332;50.208;18.988;2023-08-21T01:50:03;24.10;70.00
20349;DHT22;10332;50.208;18.988;2023-08-21T01:52:30;24.10;70.00
20349;DHT22;10332;50.208;18.988;2023-08-21T01:54:59;24.10;72.10
20349;DHT22;10332;50.208;18.988;2023-08-21T01:57:26;24.00;73.00
20349;DHT22;10332;50.208;18.988;2023-08-21T01:59:53;24.00;73.10
20349;DHT22;10332;50.208;18.988;2023-08-21T02:02:21;24.00;72.60
20349;DHT22;10332;50.208;18.988;2023-08-21T02:04:48;24.00;72.30
20349;DHT22;10332;50.208;18.988;2023-08-21T02:07:16;24.00;74.70
20349;DHT22;10332;50.208;18.988;2023-08-21T02:09:44;24.00;73.80
20349;DHT22;10332;50.208;18.988;2023-08-21T02:12:11;24.00;72.80
20349;DHT22;10332;50.208;18.988;2023-08-21T02:14:38;23.90;72.10
20349;DHT22;10332;50.208;18.988;2023-08-21T02:17:06;23.90;72.30
20349;DHT22;10332;50.208;18.988;2023-08-21T02:19:33;23.90;72.90
20349;DHT22;10332;50.208;18.988;2023-08-21T02:22:01;23.80;73.60
20349;DHT22;10332;50.208;18.988;2023-08-21T02:24:28;23.80;75.30
20349;DHT22;10332;50.208;18.988;2023-08-21T02:26:56;23.80;75.20
20349;DHT22;10332;50.208;18.988;2023-08-21T02:29:23;23.80;75.70
20349;DHT22;10332;50.208;18.988;2023-08-21T02:31:51;23.80;74.40
20349;DHT22;10332;50.208;18.988;2023-08-21T02:34:18;23.80;73.80
20349;DHT22;10332;50.208;18.988;2023-08-21T02:36:45;23.80;73.60
20349;DHT22;10332;50.208;18.988;2023-08-21T02:39:13;23.80;73.90
20349;DHT22;10332;50.208;18.988;2023-08-21T02:41:40;23.80;76.30
20349;DHT22;10332;50.208;18.988;2023-08-21T02:44:08;23.70;76.80
20349;DHT22;10332;50.208;18.988;2023-08-21T02:46:35;23.70;75.90
20349;DHT22;10332;50.208;18.988;2023-08-21T02:49:03;23.70;75.50
20349;DHT22;10332;50.208;18.988;2023-08-21T02:51:31;23.80;74.90
20349;DHT22;10332;50.208;18.988;2023-08-21T02:53:58;23.80;75.30
20349;DHT22;10332;50.208;18.988;2023-08-21T02:56:25;23.70;75.80
20349;DHT22;10332;50.208;18.988;2023-08-21T02:58:53;23.70;79.90
20349;DHT22;10332;50.208;18.988;2023-08-21T03:01:20;23.70;78.30
20349;DHT22;10332;50.208;18.988;2023-08-21T03:03:47;23.60;79.10
20349;DHT22;10332;50.208;18.988;2023-08-21T03:06:15;23.60;80.20
20349;DHT22;10332;50.208;18.988;2023-08-21T03:08:43;23.50;79.70
20349;DHT22;10332;50.208;18.988;2023-08-21T03:11:11;23.50;82.30
20349;DHT22;10332;50.208;18.988;2023-08-21T03:13:38;23.40;86.50
20349;DHT22;10332;50.208;18.988;2023-08-21T03:16:06;23.30;89.40
20349;DHT22;10332;50.208;18.988;2023-08-21T03:18:56;23.20;91.20
20349;DHT22;10332;50.208;18.988;2023-08-21T03:21:26;23.20;92.20
20349;DHT22;10332;50.208;18.988;2023-08-21T03:23:58;23.10;94.70
20349;DHT22;10332;50.208;18.988;2023-08-21T03:26:31;23.10;94.00
20349;DHT22;10332;50.208;18.988;2023-08-21T03:28:59;23.00;93.50
20349;DHT22;10332;50.208;18.988;2023-08-21T03:31:26;22.90;94.20
20349;DHT22;10332;50.208;18.988;2023-08-21T03:33:54;22.90;93.20
20349;DHT22;10332;50.208;18.988;2023-08-21T03:36:22;22.90;93.60
20349;DHT22;10332;50.208;18.988;2023-08-21T03:38:58;23.00;93.20
20349;DHT22;10332;50.208;18.988;2023-08-21T03:41:27;23.00;93.00
20349;DHT22;10332;50.208;18.988;2023-08-21T03:43:54;23.00;95.00
20349;DHT22;10332;50.208;18.988;2023-08-21T03:46:22;22.90;93.90
20349;DHT22;10332;50.208;18.988;2023-08-21T03:48:50;22.90;93.30
20349;DHT22;10332;50.208;18.988;2023-08-21T03:51:19;22.90;93.20
20349;DHT22;10332;50.208;18.988;2023-08-21T03:53:46;22.90;93.30
20349;DHT22;10332;50.208;18.988;2023-08-21T03:56:14;22.90;93.70
20349;DHT22;10332;50.208;18.988;2023-08-21T03:58:41;22.90;93.90
20349;DHT22;10332;50.208;18.988;2023-08-21T04:01:09;22.90;95.40
20349;DHT22;10332;50.208;18.988;2023-08-21T04:03:37;22.90;94.50
20349;DHT22;10332;50.208;18.988;2023-08-21T04:06:04;22.90;94.60
20349;DHT22;10332;50.208;18.988;2023-08-21T04:08:32;22.90;94.50
20349;DHT22;10332;50.208;18.988;2023-08-21T04:10:59;22.90;95.50
20349;DHT22;10332;50.208;18.988;2023-08-21T04:13:27;22.90;95.20
20349;DHT22;10332;50.208;18.988;2023-08-21T04:15:55;22.90;94.60
20349;DHT22;10332;50.208;18.988;2023-08-21T04:18:24;22.90;94.20
20349;DHT22;10332;50.208;18.988;2023-08-21T04:21:07;22.90;94.10
20349;DHT22;10332;50.208;18.988;2023-08-21T04:23:34;22.90;93.90
20349;DHT22;10332;50.208;18.988;2023-08-21T04:26:03;22.90;94.30
20349;DHT22;10332;50.208;18.988;2023-08-21T04:28:31;23.00;94.70
20349;DHT22;10332;50.208;18.988;2023-08-21T04:30:59;22.90;94.90
20349;DHT22;10332;50.208;18.988;2023-08-21T04:33:28;23.00;94.50
20349;DHT22;10332;50.208;18.988;2023-08-21T04:35:56;23.00;95.00
20349;DHT22;10332;50.208;18.988;2023-08-21T04:38:23;23.00;95.00
20349;DHT22;10332;50.208;18.988;2023-08-21T04:40:51;23.00;96.30
20349;DHT22;10332;50.208;18.988;2023-08-21T04:43:18;22.90;96.80
20349;DHT22;10332;50.208;18.988;2023-08-21T04:45:52;22.90;96.70
20349;DHT22;10332;50.208;18.988;2023-08-21T04:48:20;22.90;96.90
20349;DHT22;10332;50.208;18.988;2023-08-21T04:50:48;22.90;97.40
20349;DHT22;10332;50.208;18.988;2023-08-21T04:53:15;23.00;96.70
20349;DHT22;10332;50.208;18.988;2023-08-21T04:55:43;23.00;95.90
20349;DHT22;10332;50.208;18.988;2023-08-21T04:58:10;23.10;95.40
20349;DHT22;10332;50.208;18.988;2023-08-21T05:00:38;23.20;94.90
20349;DHT22;10332;50.208;18.988;2023-08-21T05:03:06;23.20;94.60
20349;DHT22;10332;50.208;18.988;2023-08-21T05:05:36;23.30;94.40
20349;DHT22;10332;50.208;18.988;2023-08-21T05:08:04;23.30;94.10
20349;DHT22;10332;50.208;18.988;2023-08-21T05:10:31;23.40;93.50
20349;DHT22;10332;50.208;18.988;2023-08-21T05:12:59;23.50;92.90
20349;DHT22;10332;50.208;18.988;2023-08-21T05:15:26;23.60;92.30
20349;DHT22;10332;50.208;18.988;2023-08-21T05:17:53;23.70;91.50
20349;DHT22;10332;50.208;18.988;2023-08-21T05:20:21;23.70;91.00
20349;DHT22;10332;50.208;18.988;2023-08-21T05:22:48;23.70;90.60
20349;DHT22;10332;50.208;18.988;2023-08-21T05:25:16;23.70;90.80
20349;DHT22;10332;50.208;18.988;2023-08-21T05:27:43;23.80;90.30
20349;DHT22;10332;50.208;18.988;2023-08-21T05:30:12;23.80;90.00
20349;DHT22;10332;50.208;18.988;2023-08-21T05:32:40;23.90;90.00
20349;DHT22;10332;50.208;18.988;2023-08-21T05:35:08;23.90;89.30
20349;DHT22;10332;50.208;18.988;2023-08-21T05:37:36;24.00;88.40
20349;DHT22;10332;50.208;18.988;2023-08-21T05:40:04;24.20;87.70
20349;DHT22;10332;50.208;18.988;2023-08-21T05:42:32;24.30;86.10
20349;DHT22;10332;50.208;18.988;2023-08-21T05:44:59;24.50;85.10
20349;DHT22;10332;50.208;18.988;2023-08-21T05:47:27;24.60;83.40
20349;DHT22;10332;50.208;18.988;2023-08-21T05:49:55;24.80;82.50
20349;DHT22;10332;50.208;18.988;2023-08-21T05:52:22;24.90;81.00
20349;DHT22;10332;50.208;18.988;2023-08-21T05:54:50;25.00;79.70
20349;DHT22;10332;50.208;18.988;2023-08-21T05:57:17;25.10;78.60
20349;DHT22;10332;50.208;18.988;2023-08-21T05:59:46;25.20;77.50
20349;DHT22;10332;50.208;18.988;2023-08-21T06:02:14;25.30;76.10
20349;DHT22;10332;50.208;18.988;2023-08-21T06:04:42;25.40;73.80
20349;DHT22;10332;50.208;18.988;2023-08-21T06:07:10;25.40;73.20
20349;DHT22;10332;50.208;18.988;2023-08-21T06:09:37;25.40;72.40
20349;DHT22;10332;50.208;18.988;2023-08-21T06:12:08;25.40;72.50
20349;DHT22;10332;50.208;18.988;2023-08-21T06:14:36;25.40;72.80
20349;DHT22;10332;50.208;18.988;2023-08-21T06:17:04;25.40;74.90
20349;DHT22;10332;50.208;18.988;2023-08-21T06:19:32;25.30;75.50
20349;DHT22;10332;50.208;18.988;2023-08-21T06:22:00;25.30;75.30
20349;DHT22;10332;50.208;18.988;2023-08-21T06:24:27;25.40;75.50
20349;DHT22;10332;50.208;18.988;2023-08-21T06:26:55;25.40;76.90
20349;DHT22;10332;50.208;18.988;2023-08-21T06:29:22;25.30;77.00
20349;DHT22;10332;50.208;18.988;2023-08-21T06:31:51;25.30;76.30
20349;DHT22;10332;50.208;18.988;2023-08-21T06:34:18;25.30;77.40
20349;DHT22;10332;50.208;18.988;2023-08-21T06:36:46;25.30;76.80
20349;DHT22;10332;50.208;18.988;2023-08-21T06:39:13;25.30;77.70
20349;DHT22;10332;50.208;18.988;2023-08-21T06:41:40;25.30;77.90
20349;DHT22;10332;50.208;18.988;2023-08-21T06:44:08;25.30;77.50
20349;DHT22;10332;50.208;18.988;2023-08-21T06:46:35;25.20;77.50
20349;DHT22;10332;50.208;18.988;2023-08-21T06:49:03;25.20;78.60
20349;DHT22;10332;50.208;18.988;2023-08-21T06:51:31;25.20;78.40
20349;DHT22;10332;50.208;18.988;2023-08-21T06:53:58;25.20;80.50
20349;DHT22;10332;50.208;18.988;2023-08-21T06:56:26;25.10;80.60
20349;DHT22;10332;50.208;18.988;2023-08-21T06:58:54;25.00;80.60
20349;DHT22;10332;50.208;18.988;2023-08-21T07:01:22;25.00;80.20
20349;DHT22;10332;50.208;18.988;2023-08-21T07:03:51;25.00;80.40
20349;DHT22;10332;50.208;18.988;2023-08-21T07:06:18;25.00;80.40
20349;DHT22;10332;50.208;18.988;2023-08-21T07:08:46;25.10;80.90
20349;DHT22;10332;50.208;18.988;2023-08-21T07:11:13;25.10;80.00
20349;DHT22;10332;50.208;18.988;2023-08-21T07:13:44;25.10;79.10
20349;DHT22;10332;50.208;18.988;2023-08-21T07:16:11;25.20;78.60
20349;DHT22;10332;50.208;18.988;2023-08-21T07:18:39;25.30;78.60
20349;DHT22;10332;50.208;18.988;2023-08-21T07:21:06;25.30;77.20
20349;DHT22;10332;50.208;18.988;2023-08-21T07:23:48;25.40;76.60
20349;DHT22;10332;50.208;18.988;2023-08-21T07:26:16;25.50;75.70
20349;DHT22;10332;50.208;18.988;2023-08-21T07:28:43;25.60;75.00
20349;DHT22;10332;50.208;18.988;2023-08-21T07:31:13;25.70;74.00
20349;DHT22;10332;50.208;18.988;2023-08-21T07:33:41;25.80;73.90
20349;DHT22;10332;50.208;18.988;2023-08-21T07:36:08;25.80;72.20
20349;DHT22;10332;50.208;18.988;2023-08-21T07:38:35;25.90;71.50
20349;DHT22;10332;50.208;18.988;2023-08-21T07:41:09;26.00;70.60
20349;DHT22;10332;50.208;18.988;2023-08-21T07:43:42;26.20;69.50
20349;DHT22;10332;50.208;18.988;2023-08-21T07:46:12;26.30;68.00
20349;DHT22;10332;50.208;18.988;2023-08-21T07:48:44;26.40;66.70
20349;DHT22;10332;50.208;18.988;2023-08-21T07:51:12;26.50;64.30
20349;DHT22;10332;50.208;18.988;2023-08-21T07:53:40;26.50;63.20
20349;DHT22;10332;50.208;18.988;2023-08-21T07:56:08;26.50;62.90
20349;DHT22;10332;50.208;18.988;2023-08-21T07:58:35;26.60;62.70
20349;DHT22;10332;50.208;18.988;2023-08-21T08:01:03;26.70;62.10
20349;DHT22;10332;50.208;18.988;2023-08-21T08:03:32;26.90;60.80
20349;DHT22;10332;50.208;18.988;2023-08-21T08:06:00;27.10;59.00
20349;DHT22;10332;50.208;18.988;2023-08-21T08:08:27;27.30;57.50
20349;DHT22;10332;50.208;18.988;2023-08-21T08:11:01;27.50;56.10
20349;DHT22;10332;50.208;18.988;2023-08-21T08:13:30;27.70;53.70
20349;DHT22;10332;50.208;18.988;2023-08-21T08:15:58;27.80;51.90
20349;DHT22;10332;50.208;18.988;2023-08-21T08:18:26;27.80;51.80
20349;DHT22;10332;50.208;18.988;2023-08-21T08:20:53;27.80;50.40
20349;DHT22;10332;50.208;18.988;2023-08-21T08:23:21;27.70;50.30
20349;DHT22;10332;50.208;18.988;2023-08-21T08:25:50;27.60;50.00
20349;DHT22;10332;50.208;18.988;2023-08-21T08:28:18;27.40;50.90
20349;DHT22;10332;50.208;18.988;2023-08-21T08:30:46;27.30;52.90
20349;DHT22;10332;50.208;18.988;2023-08-21T08:33:13;27.20;54.40
20349;DHT22;10332;50.208;18.988;2023-08-21T08:35:41;27.20;56.10
20349;DHT22;10332;50.208;18.988;2023-08-21T08:38:08;27.20;57.40
20349;DHT22;10332;50.208;18.988;2023-08-21T08:40:44;27.40;56.30
20349;DHT22;10332;50.208;18.988;2023-08-21T08:43:14;27.70;53.90
20349;DHT22;10332;50.208;18.988;2023-08-21T08:45:41;27.90;52.80
20349;DHT22;10332;50.208;18.988;2023-08-21T08:48:15;28.00;51.50
20349;DHT22;10332;50.208;18.988;2023-08-21T08:50:43;28.00;50.90
20349;DHT22;10332;50.208;18.988;2023-08-21T08:53:13;28.00;51.60
20349;DHT22;10332;50.208;18.988;2023-08-21T08:55:44;28.20;51.20
20349;DHT22;10332;50.208;18.988;2023-08-21T08:58:12;28.70;48.90
20349;DHT22;10332;50.208;18.988;2023-08-21T09:00:40;29.20;44.90
20349;DHT22;10332;50.208;18.988;2023-08-21T09:03:08;29.30;42.60
20349;DHT22;10332;50.208;18.988;2023-08-21T09:05:39;29.50;41.50
20349;DHT22;10332;50.208;18.988;2023-08-21T09:08:11;29.50;39.70
20349;DHT22;10332;50.208;18.988;2023-08-21T09:10:41;29.90;37.80
20349;DHT22;10332;50.208;18.988;2023-08-21T09:13:13;30.00;35.30
20349;DHT22;10332;50.208;18.988;2023-08-21T09:15:53;30.20;32.90
20349;DHT22;10332;50.208;18.988;2023-08-21T09:18:22;30.30;30.40
20349;DHT22;10332;50.208;18.988;2023-08-21T09:20:50;30.70;28.90
20349;DHT22;10332;50.208;18.988;2023-08-21T09:23:18;31.60;21.80
20349;DHT22;10332;50.208;18.988;2023-08-21T09:25:48;33.10;14.50
20349;DHT22;10332;50.208;18.988;2023-08-21T09:28:20;34.30;3.00
20349;DHT22;10332;50.208;18.988;2023-08-21T09:30:54;35.40;1.00
20349;DHT22;10332;50.208;18.988;2023-08-21T09:33:23;36.30;1.00
20349;DHT22;10332;50.208;18.988;2023-08-21T09:35:52;36.30;1.00
20349;DHT22;10332;50.208;18.988;2023-08-21T09:38:21;35.80;1.00
20349;DHT22;10332;50.208;18.988;2023-08-21T09:40:53;36.30;1.00
20349;DHT22;10332;50.208;18.988;2023-08-21T09:43:23;36.90;1.00
20349;DHT22;10332;50.208;18.988;2023-08-21T09:45:53;37.40;1.00
20349;DHT22;10332;50.208;18.988;2023-08-21T09:48:25;37.40;1.00
20349;DHT22;10332;50.208;18.988;2023-08-21T09:50:56;38.90;1.00
20349;DHT22;10332;50.208;18.988;2023-08-21T09:53:24;41.10;1.00
20349;DHT22;10332;50.208;18.988;2023-08-21T09:55:55;43.10;1.00
20349;DHT22;10332;50.208;18.988;2023-08-21T09:58:24;44.70;1.00
20349;DHT22;10332;50.208;18.988;2023-08-21T10:00:56;43.40;1.00
20349;DHT22;10332;50.208;18.988;2023-08-21T10:03:26;45.20;1.00
20349;DHT22;10332;50.208;18.988;2023-08-21T10:05:56;46.10;1.00
20349;DHT22;10332;50.208;18.988;2023-08-21T10:08:26;44.40;1.00
20349;DHT22;10332;50.208;18.988;2023-08-21T10:10:56;44.70;1.00
20349;DHT22;10332;50.208;18.988;2023-08-21T10:13:24;43.80;1.00
20349;DHT22;10332;50.208;18.988;2023-08-21T10:15:52;43.60;1.00
20349;DHT22;10332;50.208;18.988;2023-08-21T10:20:52;43.30;1.00
20349;DHT22;10332;50.208;18.988;2023-08-21T10:23:30;44.30;1.00
20349;DHT22;10332;50.208;18.988;2023-08-21T10:26:00;44.00;1.00
20349;DHT22;10332;50.208;18.988;2023-08-21T10:29:02;43.50;1.00
20349;DHT22;10332;50.208;18.988;2023-08-21T10:34:07;40.50;1.00
20349;DHT22;10332;50.208;18.988;2023-08-21T10:39:20;37.80;1.00
20349;DHT22;10332;50.208;18.988;2023-08-21T10:42:10;36.80;1.00
20349;DHT22;10332;50.208;18.988;2023-08-21T10:44:48;36.00;1.00
20349;DHT22;10332;50.208;18.988;2023-08-21T10:50:08;34.80;1.00
20349;DHT22;10332;50.208;18.988;2023-08-21T10:52:40;34.20;1.00
20349;DHT22;10332;50.208;18.988;2023-08-21T10:55:15;33.40;1.00
20349;DHT22;10332;50.208;18.988;2023-08-21T10:57:47;32.90;1.00
20349;DHT22;10332;50.208;18.988;2023-08-21T11:00:17;32.50;1.00
20349;DHT22;10332;50.208;18.988;2023-08-21T11:02:47;32.20;1.00
20349;DHT22;10332;50.208;18.988;2023-08-21T11:05:17;31.90;1.00
20349;DHT22;10332;50.208;18.988;2023-08-21T11:07:47;31.50;1.00
20349;DHT22;10332;50.208;18.988;2023-08-21T11:10:18;31.30;1.00
20349;DHT22;10332;50.208;18.988;2023-08-21T11:12:50;31.10;1.00
20349;DHT22;10332;50.208;18.988;2023-08-21T11:15:28;31.00;1.00
20349;DHT22;10332;50.208;18.988;2023-08-21T11:17:57;31.10;1.00
20349;DHT22;10332;50.208;18.988;2023-08-21T11:20:36;31.00;1.00
20349;DHT22;10332;50.208;18.988;2023-08-21T11:23:05;31.10;1.00
20349;DHT22;10332;50.208;18.988;2023-08-21T11:25:38;31.20;1.00
20349;DHT22;10332;50.208;18.988;2023-08-21T11:28:06;31.20;1.00
20349;DHT22;10332;50.208;18.988;2023-08-21T11:30:36;31.20;1.00
20349;DHT22;10332;50.208;18.988;2023-08-21T11:33:13;31.20;1.00
20349;DHT22;10332;50.208;18.988;2023-08-21T11:35:41;31.20;1.00
20349;DHT22;10332;50.208;18.988;2023-08-21T11:38:20;31.20;1.00
20349;DHT22;10332;50.208;18.988;2023-08-21T11:40:59;31.30;1.00
20349;DHT22;10332;50.208;18.988;2023-08-21T11:43:40;31.40;1.00
20349;DHT22;10332;50.208;18.988;2023-08-21T11:46:09;31.50;1.00
20349;DHT22;10332;50.208;18.988;2023-08-21T11:48:41;31.60;1.00
20349;DHT22;10332;50.208;18.988;2023-08-21T11:51:09;31.70;1.00
20349;DHT22;10332;50.208;18.988;2023-08-21T11:53:38;31.90;1.00
20349;DHT22;10332;50.208;18.988;2023-08-21T11:56:14;31.90;1.00
20349;DHT22;10332;50.208;18.988;2023-08-21T11:58:44;31.80;1.00
20349;DHT22;10332;50.208;18.988;2023-08-21T12:01:20;31.80;1.00
20349;DHT22;10332;50.208;18.988;2023-08-21T12:03:48;31.90;1.00
20349;DHT22;10332;50.208;18.988;2023-08-21T12:06:24;32.00;1.00
20349;DHT22;10332;50.208;18.988;2023-08-21T12:08:59;32.20;1.00
20349;DHT22;10332;50.208;18.988;2023-08-21T12:11:27;32.40;1.00
20349;DHT22;10332;50.208;18.988;2023-08-21T12:13:54;32.70;1.00
20349;DHT22;10332;50.208;18.988;2023-08-21T12:16:23;33.10;1.00
20349;DHT22;10332;50.208;18.988;2023-08-21T12:18:50;33.40;1.00
20349;DHT22;10332;50.208;18.988;2023-08-21T12:21:19;33.60;1.00
20349;DHT22;10332;50.208;18.988;2023-08-21T12:23:46;33.80;1.00
20349;DHT22;10332;50.208;18.988;2023-08-21T12:26:14;34.00;1.00
20349;DHT22;10332;50.208;18.988;2023-08-21T12:28:48;34.10;1.00
20349;DHT22;10332;50.208;18.988;2023-08-21T12:31:17;34.30;1.00
20349;DHT22;10332;50.208;18.988;2023-08-21T12:33:44;34.30;1.00
20349;DHT22;10332;50.208;18.988;2023-08-21T12:36:12;34.30;1.00
20349;DHT22;10332;50.208;18.988;2023-08-21T12:38:39;34.40;1.00
20349;DHT22;10332;50.208;18.988;2023-08-21T12:41:07;34.50;1.00
20349;DHT22;10332;50.208;18.988;2023-08-21T12:43:34;34.50;1.00
20349;DHT22;10332;50.208;18.988;2023-08-21T12:46:01;34.60;1.00
20349;DHT22;10332;50.208;18.988;2023-08-21T12:48:29;34.70;1.00
20349;DHT22;10332;50.208;18.988;2023-08-21T12:50:57;34.70;1.00
20349;DHT22;10332;50.208;18.988;2023-08-21T12:53:24;34.70;1.00
20349;DHT22;10332;50.208;18.988;2023-08-21T12:55:52;34.50;1.00
20349;DHT22;10332;50.208;18.988;2023-08-21T12:58:19;34.50;1.00
20349;DHT22;10332;50.208;18.988;2023-08-21T13:00:47;34.30;1.00
20349;DHT22;10332;50.208;18.988;2023-08-21T13:03:14;34.30;1.00
20349;DHT22;10332;50.208;18.988;2023-08-21T13:05:42;34.20;1.00
20349;DHT22;10332;50.208;18.988;2023-08-21T13:08:15;34.10;1.00
20349;DHT22;10332;50.208;18.988;2023-08-21T13:10:43;34.00;1.00
20349;DHT22;10332;50.208;18.988;2023-08-21T13:13:10;34.00;1.00
20349;DHT22;10332;50.208;18.988;2023-08-21T13:15:38;34.00;1.00
20349;DHT22;10332;50.208;18.988;2023-08-21T13:18:05;34.00;1.00
20349;DHT22;10332;50.208;18.988;2023-08-21T13:20:33;34.10;1.00
20349;DHT22;10332;50.208;18.988;2023-08-21T13:23:00;34.20;1.00
20349;DHT22;10332;50.208;18.988;2023-08-21T13:25:28;34.20;1.00
20349;DHT22;10332;50.208;18.988;2023-08-21T13:27:56;34.30;1.00
20349;DHT22;10332;50.208;18.988;2023-08-21T13:30:24;34.30;1.00
20349;DHT22;10332;50.208;18.988;2023-08-21T13:32:52;34.40;1.00
20349;DHT22;10332;50.208;18.988;2023-08-21T13:35:19;34.50;1.00
20349;DHT22;10332;50.208;18.988;2023-08-21T13:37:50;34.60;1.00
20349;DHT22;10332;50.208;18.988;2023-08-21T13:40:18;34.70;1.00
20349;DHT22;10332;50.208;18.988;2023-08-21T13:42:47;34.80;1.00
20349;DHT22;10332;50.208;18.988;2023-08-21T13:45:17;34.80;1.00
20349;DHT22;10332;50.208;18.988;2023-08-21T13:47:48;34.80;1.00
20349;DHT22;10332;50.208;18.988;2023-08-21T13:50:18;34.80;1.00
20349;DHT22;10332;50.208;18.988;2023-08-21T13:52:47;34.80;1.00
20349;DHT22;10332;50.208;18.988;2023-08-21T13:55:15;34.80;1.00
20349;DHT22;10332;50.208;18.988;2023-08-21T13:57:44;34.80;1.00
20349;DHT22;10332;50.208;18.988;2023-08-21T14:00:12;34.90;1.00
20349;DHT22;10332;50.208;18.988;2023-08-21T14:02:41;35.00;1.00
20349;DHT22;10332;50.208;18.988;2023-08-21T14:05:10;35.10;1.00
20349;DHT22;10332;50.208;18.988;2023-08-21T14:07:39;35.10;1.00
20349;DHT22;10332;50.208;18.988;2023-08-21T14:10:08;35.10;1.00
20349;DHT22;10332;50.208;18.988;2023-08-21T14:12:36;35.10;1.00
20349;DHT22;10332;50.208;18.988;2023-08-21T14:15:09;35.20;1.00
20349;DHT22;10332;50.208;18.988;2023-08-21T14:17:37;35.10;1.00
20349;DHT22;10332;50.208;18.988;2023-08-21T14:20:06;35.10;1.00
20349;DHT22;10332;50.208;18.988;2023-08-21T14:22:34;35.20;1.00
20349;DHT22;10332;50.208;18.988;2023-08-21T14:25:02;35.20;1.00
20349;DHT22;10332;50.208;18.988;2023-08-21T14:27:33;35.30;1.00
20349;DHT22;10332;50.208;18.988;2023-08-21T14:30:00;35.30;1.00
20349;DHT22;10332;50.208;18.988;2023-08-21T14:32:28;35.30;1.00
20349;DHT22;10332;50.208;18.988;2023-08-21T14:34:56;35.20;1.00
20349;DHT22;10332;50.208;18.988;2023-08-21T14:37:23;35.00;1.00
20349;DHT22;10332;50.208;18.988;2023-08-21T14:39:51;34.80;1.00
20349;DHT22;10332;50.208;18.988;2023-08-21T14:42:18;34.70;1.00
20349;DHT22;10332;50.208;18.988;2023-08-21T14:44:46;34.60;1.00
20349;DHT22;10332;50.208;18.988;2023-08-21T14:47:13;34.60;1.00
20349;DHT22;10332;50.208;18.988;2023-08-21T14:49:41;34.50;1.00
20349;DHT22;10332;50.208;18.988;2023-08-21T14:52:08;34.30;1.00
20349;DHT22;10332;50.208;18.988;2023-08-21T14:54:36;34.00;1.00
20349;DHT22;10332;50.208;18.988;2023-08-21T14:57:03;33.90;1.00
20349;DHT22;10332;50.208;18.988;2023-08-21T14:59:31;33.90;1.00
20349;DHT22;10332;50.208;18.988;2023-08-21T15:01:58;33.90;1.00
20349;DHT22;10332;50.208;18.988;2023-08-21T15:04:26;33.90;1.00
20349;DHT22;10332;50.208;18.988;2023-08-21T15:06:53;33.90;1.00
20349;DHT22;10332;50.208;18.988;2023-08-21T15:09:21;33.90;1.00
20349;DHT22;10332;50.208;18.988;2023-08-21T15:11:48;33.80;1.00
20349;DHT22;10332;50.208;18.988;2023-08-21T15:14:16;33.70;1.00
20349;DHT22;10332;50.208;18.988;2023-08-21T15:16:44;33.60;1.00
20349;DHT22;10332;50.208;18.988;2023-08-21T15:19:11;33.50;1.00
20349;DHT22;10332;50.208;18.988;2023-08-21T15:21:39;33.40;1.00
20349;DHT22;10332;50.208;18.988;2023-08-21T15:24:09;33.30;1.00
20349;DHT22;10332;50.208;18.988;2023-08-21T15:26:36;33.30;1.00
20349;DHT22;10332;50.208;18.988;2023-08-21T15:29:04;33.20;1.00
20349;DHT22;10332;50.208;18.988;2023-08-21T15:31:31;33.10;1.00
20349;DHT22;10332;50.208;18.988;2023-08-21T15:33:59;33.10;1.00
20349;DHT22;10332;50.208;18.988;2023-08-21T15:36:26;33.00;1.00
20349;DHT22;10332;50.208;18.988;2023-08-21T15:38:54;33.00;1.00
20349;DHT22;10332;50.208;18.988;2023-08-21T15:41:21;33.00;1.00
20349;DHT22;10332;50.208;18.988;2023-08-21T15:43:49;32.90;1.00
20349;DHT22;10332;50.208;18.988;2023-08-21T15:46:16;32.80;1.00